Time;durP1;ratioP1;P1;durP2;ratioP2;P2;SDS_P1;SDS_P2;PMS_P1;PMS_P2;Temp;Humidity;BMP_temperature;BMP_pressure;BME280_temperature;BME280_humidity;BME280_pressure;Samples;Min_cycle;Max_cycle;Signal;HPM_P1;HPM_P2
2022/03/11 00:00:52;;;;;;;11.48;7.78;;;3.70;99.90;;;;;;5015297;28;20049;-80
2022/03/11 00:03:20;;;;;;;11.02;7.43;;;3.80;99.90;;;;;;4985005;28;20041;-80
2022/03/11 00:05:46;;;;;;;15.35;8.27;;;3.80;99.90;;;;;;5000234;28;20080;-80
2022/03/11 00:08:11;;;;;;;11.55;7.43;;;4.60;99.90;;;;;;5025487;28;20395;-80
2022/03/11 00:10:38;;;;;;;10.02;7.20;;;4.00;99.90;;;;;;5009549;28;20085;-80
2022/03/11 00:13:04;;;;;;;12.38;7.40;;;3.70;99.90;;;;;;5010229;28;20084;-80
2022/03/11 00:15:29;;;;;;;9.75;7.30;;;3.70;99.90;;;;;;4992570;28;20061;-81
2022/03/11 00:17:55;;;;;;;11.43;7.28;;;3.70;99.90;;;;;;4983764;28;20050;-80
2022/03/11 00:20:21;;;;;;;11.05;7.60;;;3.70;99.90;;;;;;5016384;28;20046;-81
2022/03/11 00:22:48;;;;;;;10.38;7.60;;;3.80;99.90;;;;;;5003233;28;20162;-81
2022/03/11 00:25:15;;;;;;;11.75;7.70;;;3.60;99.90;;;;;;5016274;28;20045;-80
2022/03/11 00:27:41;;;;;;;11.40;8.02;;;3.60;99.90;;;;;;5017045;28;20275;-80
2022/03/11 00:30:07;;;;;;;11.50;7.43;;;3.60;99.90;;;;;;5011217;28;20542;-80
2022/03/11 00:32:33;;;;;;;13.38;8.38;;;3.50;99.90;;;;;;5010369;28;20064;-79
2022/03/11 00:34:59;;;;;;;10.27;7.28;;;3.50;99.90;;;;;;5012035;28;20042;-79
2022/03/11 00:37:25;;;;;;;12.70;8.02;;;3.40;99.90;;;;;;5005503;28;20062;-79
2022/03/11 00:39:51;;;;;;;9.88;6.90;;;4.50;99.90;;;;;;5004982;28;20045;-79
2022/03/11 00:42:17;;;;;;;11.68;7.40;;;3.40;99.90;;;;;;4992332;28;20050;-79
2022/03/11 00:44:43;;;;;;;10.65;7.80;;;3.40;99.90;;;;;;5009508;28;20069;-79
2022/03/11 00:47:09;;;;;;;10.82;7.57;;;4.10;99.90;;;;;;5018574;28;20060;-79
2022/03/11 00:49:36;;;;;;;15.32;8.05;;;3.30;99.90;;;;;;4999901;28;20041;-79
2022/03/11 00:52:02;;;;;;;12.00;8.27;;;3.30;99.90;;;;;;5002345;28;20050;-79
2022/03/11 00:54:28;;;;;;;10.25;7.95;;;3.30;99.90;;;;;;5016474;28;20069;-79
2022/03/11 00:56:54;;;;;;;11.23;7.53;;;4.40;99.90;;;;;;5008277;28;20058;-79
2022/03/11 00:59:20;;;;;;;11.88;7.57;;;3.80;99.90;;;;;;5007895;28;20060;-80
2022/03/11 01:01:46;;;;;;;13.23;7.70;;;4.30;99.90;;;;;;4993304;28;20045;-79
2022/03/11 01:04:12;;;;;;;13.18;8.25;;;4.00;99.90;;;;;;5017267;28;20445;-80
2022/03/11 01:06:38;;;;;;;10.35;7.72;;;3.60;99.90;;;;;;5016691;28;20533;-79
2022/03/11 01:09:04;;;;;;;11.20;8.13;;;3.10;99.90;;;;;;5000047;28;20049;-79
2022/03/11 01:11:30;;;;;;;11.13;7.85;;;3.10;99.90;;;;;;5008908;28;20259;-79
2022/03/11 01:13:56;;;;;;;14.52;8.38;;;3.10;99.90;;;;;;5016677;28;20570;-79
2022/03/11 01:16:23;;;;;;;11.45;7.65;;;3.60;99.90;;;;;;5031208;28;20514;-79
2022/03/11 01:18:49;;;;;;;12.43;8.13;;;3.10;99.90;;;;;;5018075;28;20487;-79
2022/03/11 01:21:15;;;;;;;12.77;7.93;;;3.90;99.90;;;;;;5005895;28;20038;-79
2022/03/11 01:23:41;;;;;;;12.02;7.97;;;4.30;99.90;;;;;;5006082;28;20650;-80
2022/03/11 01:26:07;;;;;;;11.27;8.02;;;3.00;99.90;;;;;;5005494;28;20057;-79
2022/03/11 01:28:34;;;;;;;11.65;8.23;;;3.00;99.90;;;;;;5003661;28;20136;-79
2022/03/11 01:30:59;;;;;;;11.35;8.32;;;3.00;99.90;;;;;;5036931;28;20100;-79
2022/03/11 01:33:25;;;;;;;14.90;8.88;;;3.10;99.90;;;;;;5005109;28;20132;-79
2022/03/11 01:35:51;;;;;;;11.80;8.10;;;3.60;99.90;;;;;;5004748;28;20049;-79
2022/03/11 01:38:17;;;;;;;12.35;8.70;;;3.00;99.90;;;;;;4986973;28;20457;-79
2022/03/11 01:40:43;;;;;;;11.05;7.80;;;2.90;99.90;;;;;;5005271;28;20046;-79
2022/03/11 01:43:16;;;;;;;12.40;8.35;;;3.90;99.90;;;;;;5012733;28;20514;-79
2022/03/11 01:45:42;;;;;;;12.50;8.50;;;2.80;99.90;;;;;;5022127;28;20452;-79
2022/03/11 01:48:10;;;;;;;11.98;8.05;;;3.00;99.90;;;;;;5020145;28;20102;-79
2022/03/11 01:50:42;;;;;;;13.27;8.55;;;2.80;99.90;;;;;;5021208;28;20473;-80
2022/03/11 01:53:09;;;;;;;12.25;8.43;;;1.50;99.90;;;;;;5021043;28;20372;-79
2022/03/11 01:55:36;;;;;;;12.18;7.88;;;3.20;99.90;;;;;;5019486;28;20060;-79
2022/03/11 01:58:03;;;;;;;13.70;8.07;;;2.80;99.90;;;;;;4989099;28;20128;-79
2022/03/11 02:00:28;;;;;;;11.27;8.40;;;4.10;99.90;;;;;;5019723;28;20042;-79
2022/03/11 02:02:54;;;;;;;13.93;8.45;;;2.80;99.90;;;;;;5021460;28;20046;-79
2022/03/11 02:05:20;;;;;;;11.70;8.43;;;2.80;99.90;;;;;;5018834;28;20046;-79
2022/03/11 02:07:47;;;;;;;11.30;7.88;;;4.00;99.90;;;;;;5003166;28;20046;-78
2022/03/11 02:10:14;;;;;;;12.45;8.27;;;2.80;99.90;;;;;;5004793;28;20042;-80
2022/03/11 02:12:39;;;;;;;13.27;8.13;;;2.80;99.90;;;;;;5019772;28;20129;-79
2022/03/11 02:15:07;;;;;;;14.32;8.38;;;2.80;99.90;;;;;;5021194;28;20125;-78
2022/03/11 02:17:33;;;;;;;11.50;8.15;;;2.80;99.90;;;;;;5011346;28;20406;-79
2022/03/11 02:19:58;;;;;;;12.43;8.60;;;3.40;99.90;;;;;;5003771;28;20060;-79
2022/03/11 02:22:25;;;;;;;12.88;8.32;;;2.80;99.90;;;;;;5020413;28;20049;-78
2022/03/11 02:24:52;;;;;;;13.68;8.82;;;2.80;99.90;;;;;;5019393;28;20108;-78
2022/03/11 02:27:18;;;;;;;11.43;8.25;;;2.70;99.90;;;;;;5008899;28;20056;-80
2022/03/11 02:29:43;;;;;;;10.25;8.13;;;3.30;99.90;;;;;;5017877;28;20053;-78
2022/03/11 02:32:09;;;;;;;11.63;8.60;;;2.90;99.90;;;;;;5003588;28;20054;-79
2022/03/11 02:34:40;;;;;;;11.77;8.40;;;2.70;99.90;;;;;;4977881;28;20521;-79
2022/03/11 02:37:06;;;;;;;11.38;8.27;;;3.90;99.90;;;;;;5003264;28;20111;-79
2022/03/11 02:39:36;;;;;;;13.55;8.10;;;3.40;99.90;;;;;;5033928;28;20557;-79
2022/03/11 02:42:05;;;;;;;13.15;8.25;;;3.20;99.90;;;;;;5017990;28;20136;-79
2022/03/11 02:44:31;;;;;;;13.02;8.40;;;2.70;99.90;;;;;;4985495;28;20049;-79
2022/03/11 02:46:59;;;;;;;12.00;8.30;;;2.70;99.90;;;;;;4998981;28;20052;-79
2022/03/11 02:49:27;;;;;;;11.75;8.48;;;2.70;99.90;;;;;;5016104;28;20067;-79
2022/03/11 02:51:53;;;;;;;13.50;8.30;;;2.70;99.90;;;;;;5016552;28;20137;-79
2022/03/11 02:54:19;;;;;;;13.98;8.13;;;3.90;99.90;;;;;;4985146;28;20053;-80
2022/03/11 02:56:45;;;;;;;13.80;8.50;;;2.70;99.90;;;;;;5016700;28;20053;-79
2022/03/11 02:59:25;;;;;;;13.88;8.90;;;2.70;99.90;;;;;;5010248;28;20046;-81
2022/03/11 03:01:50;;;;;;;10.70;7.55;;;2.80;99.90;;;;;;5009922;28;20128;-80
2022/03/11 03:04:16;;;;;;;12.68;8.55;;;3.50;99.90;;;;;;5019225;28;20467;-81
2022/03/11 03:06:42;;;;;;;11.05;7.93;;;3.00;99.90;;;;;;5015516;28;20410;-80
2022/03/11 03:09:08;;;;;;;10.23;7.55;;;4.00;99.90;;;;;;4986256;28;20064;-80
2022/03/11 03:11:33;;;;;;;11.80;7.85;;;2.90;99.90;;;;;;5024958;28;20045;-80
2022/03/11 03:13:59;;;;;;;12.80;7.80;;;;;;;;;;5017997;28;20128;-80
2022/03/11 03:16:25;;;;;;;10.00;7.85;;;2.70;99.90;;;;;;5002687;28;20634;-79
2022/03/11 03:18:51;;;;;;;12.68;8.13;;;2.60;99.90;;;;;;5017674;28;20502;-79
2022/03/11 03:21:17;;;;;;;11.75;7.97;;;2.60;99.90;;;;;;5001442;28;20138;-80
2022/03/11 03:23:43;;;;;;;12.30;7.80;;;2.80;99.90;;;;;;4986417;28;20137;-79
2022/03/11 03:26:08;;;;;;;13.10;8.20;;;3.40;99.90;;;;;;4961223;28;1157383;-80
2022/03/11 03:28:34;;;;;;;12.65;8.25;;;3.00;99.90;;;;;;5036800;28;20050;-79
2022/03/11 03:31:01;;;;;;;13.35;8.02;;;3.10;99.90;;;;;;5003457;28;20046;-80
2022/03/11 03:33:26;;;;;;;12.80;8.20;;;2.80;99.90;;;;;;5004654;28;20049;-80
2022/03/11 03:35:52;;;;;;;11.52;8.13;;;3.90;99.90;;;;;;5034024;28;20042;-79
2022/03/11 03:38:18;;;;;;;11.93;7.45;;;2.50;99.90;;;;;;4993827;28;20136;-81
2022/03/11 03:40:44;;;;;;;11.10;8.20;;;2.50;99.90;;;;;;5009019;28;20049;-79
2022/03/11 03:43:09;;;;;;;10.90;7.72;;;2.50;99.90;;;;;;5004718;28;20371;-79
2022/03/11 03:45:35;;;;;;;12.15;7.63;;;3.30;99.90;;;;;;5005488;28;20641;-78
2022/03/11 03:48:01;;;;;;;11.85;7.25;;;2.50;99.90;;;;;;5006266;28;20049;-80
2022/03/11 03:50:28;;;;;;;13.50;7.88;;;2.80;99.90;;;;;;5001692;28;20138;-80
2022/03/11 03:52:54;;;;;;;13.20;8.27;;;2.50;99.90;;;;;;5001681;28;20050;-79
2022/03/11 03:55:19;;;;;;;12.73;7.63;;;3.20;99.90;;;;;;5001450;28;20058;-80
2022/03/11 03:57:45;;;;;;;11.82;7.05;;;2.50;99.90;;;;;;5002587;28;20431;-79
2022/03/11 04:00:11;;;;;;;13.27;7.07;;;2.90;99.90;;;;;;5000685;28;20081;-79
2022/03/11 04:02:44;;;;;;;10.90;7.38;;;2.50;99.90;;;;;;4983815;28;20103;-80
2022/03/11 04:05:12;;;;;;;15.80;7.50;;;2.50;99.90;;;;;;5018944;28;20128;-80
2022/03/11 04:07:42;;;;;;;11.98;7.57;;;2.50;99.90;;;;;;5017078;28;20080;-80
2022/03/11 04:10:08;;;;;;;10.68;6.97;;;2.50;99.90;;;;;;5009300;28;20077;-80
2022/03/11 04:12:34;;;;;;;12.85;7.22;;;2.50;99.90;;;;;;4986600;28;20182;-80
2022/03/11 04:15:00;;;;;;;10.25;7.03;;;2.50;99.90;;;;;;5002318;28;20491;-80
2022/03/11 04:17:25;;;;;;;10.05;7.20;;;2.50;99.90;;;;;;5002853;28;20053;-80
2022/03/11 04:19:51;;;;;;;11.73;7.47;;;2.50;99.90;;;;;;5002265;28;20049;-80
2022/03/11 04:22:17;;;;;;;10.93;7.45;;;2.50;99.90;;;;;;5009463;28;20084;-80
2022/03/11 04:24:43;;;;;;;13.45;7.75;;;2.50;99.90;;;;;;5017012;28;20050;-80
2022/03/11 04:27:09;;;;;;;11.30;7.63;;;2.90;99.90;;;;;;4999270;28;20076;-80
2022/03/11 04:29:35;;;;;;;10.93;7.60;;;2.60;99.90;;;;;;5008512;28;20055;-80
2022/03/11 04:32:01;;;;;;;14.15;7.40;;;2.40;99.90;;;;;;5001827;28;20049;-81
2022/03/11 04:34:26;;;;;;;11.93;7.68;;;2.40;99.90;;;;;;4985255;28;20103;-80
2022/03/11 04:36:52;;;;;;;13.15;8.00;;;2.10;99.90;;;;;;5001978;28;20087;-80
2022/03/11 04:39:18;;;;;;;12.50;7.88;;;3.00;99.90;;;;;;5018768;28;20053;-80
2022/03/11 04:41:44;;;;;;;11.82;7.05;;;2.40;99.90;;;;;;5008915;28;20069;-80
2022/03/11 04:44:10;;;;;;;12.18;7.75;;;2.40;99.90;;;;;;5000974;28;20061;-80
2022/03/11 04:46:36;;;;;;;10.15;6.25;;;3.30;99.90;;;;;;5000613;28;20095;-80
2022/03/11 04:49:01;;;;;;;12.18;7.47;;;3.00;99.90;;;;;;5015572;28;20057;-79
2022/03/11 04:51:27;;;;;;;11.73;8.23;;;2.80;99.90;;;;;;5000993;28;20053;-80
2022/03/11 04:53:54;;;;;;;12.18;8.13;;;2.30;99.90;;;;;;5033309;28;20050;-79
2022/03/11 04:56:20;;;;;;;14.68;8.25;;;1.20;99.90;;;;;;5001032;28;20053;-79
2022/03/11 04:58:45;;;;;;;11.93;7.85;;;2.30;99.90;;;;;;4990026;28;21705;-80
2022/03/11 05:01:11;;;;;;;10.63;7.38;;;2.20;99.90;;;;;;5008733;28;20661;-79
2022/03/11 05:03:37;;;;;;;12.10;7.65;;;3.20;99.90;;;;;;5000166;28;20060;-80
2022/03/11 05:06:03;;;;;;;12.38;8.00;;;2.20;99.90;;;;;;5017070;28;20053;-80
2022/03/11 05:08:28;;;;;;;11.32;7.95;;;2.20;99.90;;;;;;5000202;28;20065;-81
2022/03/11 05:10:54;;;;;;;11.82;8.05;;;2.10;99.90;;;;;;5008802;28;20053;-80
2022/03/11 05:13:20;;;;;;;10.95;7.93;;;2.10;99.90;;;;;;5000703;28;20085;-80
2022/03/11 05:15:46;;;;;;;13.50;7.90;;;2.10;99.90;;;;;;4984792;28;20045;-80
2022/03/11 05:18:11;;;;;;;15.18;8.65;;;2.10;99.90;;;;;;4974132;28;20103;-80
2022/03/11 05:20:38;;;;;;;11.77;8.07;;;2.10;99.90;;;;;;4983566;28;20049;-80
2022/03/11 05:23:04;;;;;;;11.35;8.15;;;1.60;99.90;;;;;;5032479;28;20066;-80
2022/03/11 05:25:30;;;;;;;14.82;8.55;;;2.60;99.90;;;;;;5007525;28;20135;-81
2022/03/11 05:27:56;;;;;;;11.40;7.93;;;2.30;99.90;;;;;;5015780;28;20069;-80
2022/03/11 05:30:22;;;;;;;11.10;7.88;;;2.10;99.90;;;;;;5000983;28;20060;-79
2022/03/11 05:32:48;;;;;;;12.20;8.50;;;2.10;99.90;;;;;;4984565;28;20048;-78
2022/03/11 05:35:17;;;;;;;12.65;8.48;;;2.00;99.90;;;;;;4999549;28;20045;-78
2022/03/11 05:37:42;;;;;;;11.43;8.27;;;3.60;99.90;;;;;;4989559;28;20111;-82
2022/03/11 05:40:09;;;;;;;12.73;8.60;;;2.20;99.90;;;;;;4999686;28;20045;-82
2022/03/11 05:42:34;;;;;;;11.88;8.20;;;2.00;99.90;;;;;;4984450;28;20128;-81
2022/03/11 05:45:02;;;;;;;13.00;8.63;;;2.80;99.90;;;;;;5002266;28;20136;-81
2022/03/11 05:47:28;;;;;;;14.07;8.15;;;2.20;99.90;;;;;;5000012;28;20058;-81
2022/03/11 05:49:54;;;;;;;13.20;9.27;;;3.40;99.90;;;;;;5000140;28;20071;-81
2022/03/11 05:52:22;;;;;;;12.85;8.35;;;2.90;99.90;;;;;;5007196;28;20057;-81
2022/03/11 05:54:48;;;;;;;12.65;8.85;;;0.70;99.90;;;;;;5007810;28;20212;-79
2022/03/11 05:57:14;;;;;;;18.17;8.80;;;2.60;99.90;;;;;;5014824;28;20052;-79
2022/03/11 05:59:40;;;;;;;14.50;8.60;;;1.90;99.90;;;;;;5007352;28;20057;-79
2022/03/11 06:02:06;;;;;;;13.30;8.32;;;1.90;99.90;;;;;;5000002;28;20053;-79
2022/03/11 06:04:32;;;;;;;12.65;8.50;;;1.90;99.90;;;;;;5019411;28;20057;-80
2022/03/11 06:06:58;;;;;;;13.60;8.38;;;1.90;99.90;;;;;;5004304;28;20391;-79
2022/03/11 06:09:23;;;;;;;12.25;8.70;;;1.90;99.90;;;;;;5019095;28;20053;-79
2022/03/11 06:11:49;;;;;;;13.48;8.95;;;3.40;99.90;;;;;;4987367;28;20046;-79
2022/03/11 06:14:15;;;;;;;13.50;9.32;;;2.10;99.90;;;;;;5011572;28;20057;-78
2022/03/11 06:16:40;;;;;;;14.20;8.07;;;3.50;99.90;;;;;;5010781;28;20058;-80
2022/03/11 06:19:06;;;;;;;13.90;9.52;;;1.90;99.90;;;;;;4987669;28;20065;-79
2022/03/11 06:21:32;;;;;;;15.25;8.82;;;1.90;99.90;;;;;;5035537;28;20510;-80
2022/03/11 06:23:58;;;;;;;12.90;8.77;;;1.90;99.90;;;;;;5004550;28;20057;-79
2022/03/11 06:26:24;;;;;;;13.85;9.15;;;3.50;99.90;;;;;;5019501;28;20058;-79
2022/03/11 06:28:50;;;;;;;16.63;10.02;;;2.00;99.90;;;;;;5010338;28;20053;-79
2022/03/11 06:31:15;;;;;;;15.55;8.90;;;3.50;99.90;;;;;;5019946;28;20053;-79
2022/03/11 06:33:41;;;;;;;14.45;9.60;;;2.00;99.90;;;;;;4988592;28;20077;-79
2022/03/11 06:36:09;;;;;;;14.90;9.68;;;2.00;99.90;;;;;;5019367;28;20053;-79
2022/03/11 06:38:35;;;;;;;13.18;8.65;;;2.00;99.90;;;;;;5004094;28;20046;-80
2022/03/11 06:41:01;;;;;;;14.80;9.32;;;0.70;99.90;;;;;;4986383;28;20125;-81
2022/03/11 06:43:27;;;;;;;15.85;10.20;;;2.10;99.90;;;;;;5005732;28;20118;-81
2022/03/11 06:45:54;;;;;;;16.67;9.38;;;2.10;99.90;;;;;;5002891;28;20068;-82
2022/03/11 06:48:21;;;;;;;13.48;9.70;;;2.20;99.90;;;;;;5036777;28;20486;-83
2022/03/11 06:50:48;;;;;;;15.90;9.90;;;2.10;99.90;;;;;;5012023;28;20041;-82
2022/03/11 06:53:17;;;;;;;14.30;9.38;;;2.10;99.90;;;;;;5007102;28;20053;-83
2022/03/11 06:55:42;;;;;;;14.18;9.32;;;2.20;99.90;;;;;;5043090;28;20104;-83
2022/03/11 06:58:08;;;;;;;17.23;9.57;;;3.30;99.90;;;;;;5023635;28;20042;-83
2022/03/11 07:00:34;;;;;;;15.50;9.73;;;2.20;99.90;;;;;;5010726;28;20544;-81
2022/03/11 07:03:02;;;;;;;16.05;9.95;;;2.30;99.90;;;;;;5020566;28;20494;-81
2022/03/11 07:05:28;;;;;;;14.65;9.48;;;2.30;99.90;;;;;;5011163;28;20053;-83
2022/03/11 07:07:54;;;;;;;15.13;9.32;;;2.40;99.90;;;;;;4986935;28;20046;-81
2022/03/11 07:10:20;;;;;;;16.40;9.38;;;2.40;99.90;;;;;;5011365;28;20054;-82
2022/03/11 07:12:49;;;;;;;13.50;9.18;;;2.70;99.90;;;;;;5004210;28;20049;-82
2022/03/11 07:15:15;;;;;;;16.83;9.77;;;2.50;99.90;;;;;;5017252;28;20501;-81
2022/03/11 07:17:42;;;;;;;15.25;9.32;;;2.60;99.90;;;;;;5002544;28;20045;-82
2022/03/11 07:20:10;;;;;;;15.50;10.55;;;2.70;99.90;;;;;;5018955;28;20488;-83
2022/03/11 07:22:36;;;;;;;16.73;9.63;;;2.70;99.90;;;;;;5008947;28;20149;-84
2022/03/11 07:25:03;;;;;;;14.32;9.80;;;2.90;99.90;;;;;;5017245;28;20077;-82
2022/03/11 07:27:30;;;;;;;14.40;9.50;;;2.80;99.90;;;;;;5003931;28;20068;-85
2022/03/11 07:29:59;;;;;;;16.38;9.80;;;3.00;99.90;;;;;;5008496;28;20077;-85
2022/03/11 07:32:25;;;;;;;15.18;10.52;;;3.00;99.90;;;;;;5015289;28;20052;-81
2022/03/11 07:34:52;;;;;;;13.77;9.55;;;3.10;99.90;;;;;;5007521;28;20049;-83
2022/03/11 07:37:17;;;;;;;14.82;9.95;;;3.20;99.90;;;;;;5017039;28;20049;-81
2022/03/11 07:39:43;;;;;;;16.60;9.70;;;3.20;99.90;;;;;;4999785;28;20038;-81
2022/03/11 07:42:09;;;;;;;15.73;10.18;;;3.80;99.90;;;;;;5017904;28;20132;-81
2022/03/11 07:44:35;;;;;;;14.07;9.15;;;3.60;99.90;;;;;;5010547;28;20064;-82
2022/03/11 07:47:01;;;;;;;16.58;10.05;;;3.30;99.90;;;;;;5009870;28;20049;-82
2022/03/11 07:49:30;;;;;;;18.25;10.07;;;3.50;99.90;;;;;;5008504;28;20119;-81
2022/03/11 07:51:55;;;;;;;17.00;9.48;;;3.60;99.90;;;;;;5009517;28;20669;-81
2022/03/11 07:54:21;;;;;;;15.07;10.25;;;3.70;99.90;;;;;;5008969;28;20123;-81
2022/03/11 07:56:47;;;;;;;14.65;8.93;;;4.00;99.90;;;;;;5017808;28;20045;-81
2022/03/11 07:59:13;;;;;;;15.90;10.45;;;4.10;99.90;;;;;;5016862;28;20057;-82
2022/03/11 08:01:39;;;;;;;14.20;9.73;;;4.10;99.90;;;;;;5017274;28;20041;-81
2022/03/11 08:04:08;;;;;;;15.85;8.88;;;4.20;99.90;;;;;;4985819;28;20483;-82
2022/03/11 08:06:36;;;;;;;16.23;9.70;;;3.90;99.90;;;;;;5018575;28;20061;-82
2022/03/11 08:09:02;;;;;;;14.40;9.40;;;4.50;99.90;;;;;;5016859;28;20110;-81
2022/03/11 08:11:27;;;;;;;14.43;10.02;;;4.70;99.90;;;;;;5001839;28;20535;-81
2022/03/11 08:13:53;;;;;;;13.93;9.65;;;4.90;99.90;;;;;;5002153;28;20391;-82
2022/03/11 08:16:20;;;;;;;13.88;9.65;;;5.00;99.90;;;;;;4986831;28;20064;-80
2022/03/11 08:18:46;;;;;;;16.15;9.15;;;5.30;99.90;;;;;;5000080;28;20046;-80
2022/03/11 08:21:12;;;;;;;13.27;9.88;;;5.50;99.90;;;;;;5017875;28;20050;-81
2022/03/11 08:23:39;;;;;;;14.18;9.00;;;5.70;99.90;;;;;;4993396;28;20085;-81
2022/03/11 08:26:05;;;;;;;14.00;9.43;;;5.80;99.90;;;;;;5017819;28;20190;-80
2022/03/11 08:28:31;;;;;;;14.50;9.32;;;6.10;99.90;;;;;;5008910;28;20049;-81
2022/03/11 08:30:57;;;;;;;13.88;9.32;;;6.30;99.90;;;;;;5017286;28;20482;-81
2022/03/11 08:33:24;;;;;;;18.02;10.20;;;6.50;99.90;;;;;;5009733;28;20148;-80
2022/03/11 08:35:50;;;;;;;12.45;8.85;;;6.60;99.90;;;;;;5003056;28;20053;-81
2022/03/11 08:38:17;;;;;;;14.50;8.68;;;6.90;99.90;;;;;;5001117;28;20209;-81
2022/03/11 08:40:43;;;;;;;13.88;10.07;;;7.00;99.90;;;;;;4983775;28;20411;-80
2022/03/11 08:43:09;;;;;;;14.02;8.88;;;7.20;99.90;;;;;;5000587;28;20431;-80
2022/03/11 08:45:36;;;;;;;13.52;9.38;;;7.30;99.90;;;;;;5016153;28;20056;-81
2022/03/11 08:48:01;;;;;;;15.25;9.52;;;7.50;99.90;;;;;;5000795;28;20133;-81
2022/03/11 08:50:27;;;;;;;14.77;9.43;;;7.60;99.90;;;;;;5017561;28;20601;-81
2022/03/11 08:52:54;;;;;;;15.43;9.25;;;7.80;99.90;;;;;;5017805;28;20504;-81
2022/03/11 08:55:19;;;;;;;13.20;9.07;;;7.90;99.90;;;;;;5017475;28;20045;-80
2022/03/11 08:57:51;;;;;;;15.13;9.55;;;8.00;99.90;;;;;;5008078;28;20487;-81
2022/03/11 09:00:19;;;;;;;15.88;9.13;;;8.10;99.90;;;;;;5017757;28;20479;-81
2022/03/11 09:02:46;;;;;;;15.02;9.75;;;8.20;99.90;;;;;;5016306;28;20499;-81
2022/03/11 09:05:17;;;;;;;13.45;9.63;;;8.40;99.90;;;;;;5016819;28;20049;-81
2022/03/11 09:07:44;;;;;;;12.75;9.43;;;8.60;99.90;;;;;;5000928;28;20069;-81
2022/03/11 09:10:15;;;;;;;13.88;9.02;;;8.70;99.90;;;;;;5017043;28;20106;-81
2022/03/11 09:12:41;;;;;;;15.70;9.45;;;8.80;99.90;;;;;;5017020;28;20136;-81
2022/03/11 09:15:09;;;;;;;12.73;9.15;;;8.90;99.90;;;;;;5017217;28;20065;-81
2022/03/11 09:17:35;;;;;;;14.10;9.23;;;9.00;99.90;;;;;;5014560;28;20121;-81
2022/03/11 09:20:03;;;;;;;13.80;9.20;;;9.10;99.90;;;;;;5000018;28;20486;-81
2022/03/11 09:22:33;;;;;;;14.48;9.93;;;9.30;99.90;;;;;;5001624;28;20053;-81
2022/03/11 09:25:01;;;;;;;12.13;9.00;;;9.30;99.90;;;;;;5008648;28;20625;-81
2022/03/11 09:27:29;;;;;;;13.88;9.55;;;9.40;99.90;;;;;;5032967;28;20057;-81
2022/03/11 09:29:55;;;;;;;13.65;9.75;;;9.60;99.90;;;;;;5016567;28;20069;-81
2022/03/11 09:32:21;;;;;;;13.13;9.23;;;9.60;99.90;;;;;;5001313;28;20136;-81
2022/03/11 09:34:47;;;;;;;13.05;9.32;;;9.70;99.90;;;;;;5001521;28;20177;-81
2022/03/11 09:37:13;;;;;;;13.63;8.85;;;9.80;99.90;;;;;;5008278;28;20045;-81
2022/03/11 09:39:39;;;;;;;12.35;9.23;;;10.00;99.90;;;;;;5011500;28;20107;-82
2022/03/11 09:42:05;;;;;;;13.57;9.30;;;10.10;99.90;;;;;;5005449;28;20452;-81
2022/03/11 09:44:32;;;;;;;13.57;9.13;;;10.30;99.90;;;;;;4989280;28;20155;-81
2022/03/11 09:46:58;;;;;;;16.55;11.65;;;10.50;99.90;;;;;;5004375;28;20116;-81
2022/03/11 09:49:24;;;;;;;15.10;9.40;;;10.50;99.90;;;;;;5011939;28;20042;-81
2022/03/11 09:51:51;;;;;;;13.23;9.90;;;10.70;99.90;;;;;;5004034;28;20050;-80
2022/03/11 09:54:17;;;;;;;13.30;9.88;;;10.80;99.80;;;;;;5006275;28;20099;-80
2022/03/11 09:56:44;;;;;;;13.55;9.95;;;11.00;99.60;;;;;;5017583;28;20113;-82
2022/03/11 09:59:12;;;;;;;15.40;9.65;;;11.10;99.40;;;;;;5016131;28;20053;-81
2022/03/11 10:01:44;;;;;;;13.07;8.98;;;11.30;99.10;;;;;;5008356;28;20060;-81
2022/03/11 10:04:10;;;;;;;13.10;9.48;;;11.30;97.80;;;;;;5020228;28;20057;-82
2022/03/11 10:06:54;;;;;;;12.82;9.75;;;11.30;97.60;;;;;;5019406;28;20045;-81
2022/03/11 10:09:20;;;;;;;14.13;9.45;;;11.30;96.70;;;;;;5004013;28;20085;-83
2022/03/11 10:11:49;;;;;;;14.98;9.82;;;11.30;97.20;;;;;;5025915;28;20050;-81
2022/03/11 10:14:16;;;;;;;13.77;9.25;;;11.50;97.30;;;;;;5020431;28;20064;-82
2022/03/11 10:16:46;;;;;;;15.00;10.20;;;11.50;97.20;;;;;;5020096;28;20068;-84
2022/03/11 10:19:13;;;;;;;12.93;9.80;;;11.60;97.10;;;;;;5011032;28;20044;-82
2022/03/11 10:21:40;;;;;;;12.98;9.05;;;11.40;96.80;;;;;;5020102;28;20053;-83
2022/03/11 10:24:11;;;;;;;12.15;8.88;;;11.50;97.00;;;;;;5017877;28;20049;-81
2022/03/11 10:26:40;;;;;;;14.43;10.05;;;11.60;97.40;;;;;;5004187;28;20064;-80
2022/03/11 10:29:09;;;;;;;13.15;10.48;;;11.80;97.70;;;;;;5018005;28;20487;-81
2022/03/11 10:31:39;;;;;;;13.82;10.50;;;11.80;96.90;;;;;;5011207;28;20053;-80
2022/03/11 10:34:14;;;;;;;13.75;9.90;;;11.70;96.80;;;;;;5019957;28;20046;-81
2022/03/11 10:36:58;;;;;;;13.23;9.73;;;11.50;95.60;;;;;;5019493;28;20057;-81
2022/03/11 10:39:29;;;;;;;14.48;9.60;;;11.50;96.80;;;;;;5035666;28;20095;-81
2022/03/11 10:42:19;;;;;;;14.07;10.43;;;11.50;97.30;;;;;;5019200;28;20161;-81
2022/03/11 10:45:04;;;;;;;15.40;11.13;;;11.60;97.50;;;;;;5019231;28;20120;-82
2022/03/11 10:47:39;;;;;;;14.82;9.88;;;11.80;96.30;;;;;;5019911;28;20044;-81
2022/03/11 10:50:15;;;;;;;13.18;10.05;;;11.80;96.50;;;;;;5009714;28;20073;-82
2022/03/11 10:52:42;;;;;;;15.02;10.50;;;11.60;95.90;;;;;;4988356;28;20505;-82
2022/03/11 10:55:33;;;;;;;15.18;10.93;;;11.70;96.50;;;;;;5016886;28;20053;-83
2022/03/11 10:58:09;;;;;;;18.13;10.60;;;11.80;95.90;;;;;;5021549;28;20052;-82
2022/03/11 11:00:42;;;;;;;11.82;9.95;;;11.90;96.80;;;;;;5020424;28;20046;-83
2022/03/11 11:03:09;;;;;;;13.93;9.82;;;12.20;97.00;;;;;;5018777;28;20933;-83
2022/03/11 11:05:37;;;;;;;13.57;10.48;;;12.40;96.20;;;;;;5011357;28;20064;-84
2022/03/11 11:08:05;;;;;;;14.98;10.23;;;12.50;95.90;;;;;;5019949;28;20041;-83
2022/03/11 11:10:35;;;;;;;13.98;10.38;;;12.80;95.90;;;;;;5018923;28;20061;-83
2022/03/11 11:13:11;;;;;;;15.00;10.25;;;12.90;95.60;;;;;;5017033;28;20048;-84
2022/03/11 11:15:41;;;;;;;14.63;10.38;;;13.30;95.40;;;;;;5000108;28;20175;-83
2022/03/11 11:18:18;;;;;;;12.65;10.40;;;13.40;94.00;;;;;;5001197;28;20144;-84
2022/03/11 11:20:50;;;;;;;14.98;10.82;;;13.50;93.40;;;;;;5005011;28;20096;-89
2022/03/11 11:23:16;;;;;;;13.48;10.15;;;13.60;91.20;;;;;;5019023;28;20049;-81
2022/03/11 11:25:46;;;;;;;13.45;10.07;;;13.60;91.40;;;;;;5000708;28;20484;-81
2022/03/11 11:28:22;;;;;;;13.73;10.25;;;13.50;91.40;;;;;;5015409;28;20115;-82
2022/03/11 11:30:53;;;;;;;13.73;10.30;;;13.80;91.30;;;;;;5008873;28;20054;-80
2022/03/11 11:33:22;;;;;;;14.27;10.27;;;13.90;90.30;;;;;;5017243;28;20058;-82
2022/03/11 11:35:56;;;;;;;13.10;10.25;;;13.90;90.20;;;;;;5008936;28;20744;-83
2022/03/11 11:38:33;;;;;;;15.82;11.05;;;13.60;86.20;;;;;;5001529;28;20053;-82
2022/03/11 11:41:18;;;;;;;13.60;10.55;;;14.00;87.90;;;;;;5003391;28;20373;-82
2022/03/11 11:43:59;;;;;;;12.98;10.48;;;14.40;87.80;;;;;;5003793;28;20049;-81
2022/03/11 11:46:33;;;;;;;12.85;10.40;;;14.80;85.30;;;;;;5033230;28;20053;-89
2022/03/11 11:49:02;;;;;;;12.60;10.07;;;15.30;83.00;;;;;;5001798;28;20049;-81
2022/03/11 11:51:31;;;;;;;12.02;9.32;;;15.70;81.70;;;;;;5017336;28;20053;-82
2022/03/11 11:54:08;;;;;;;14.15;10.18;;;15.90;75.00;;;;;;5003897;28;20150;-82
2022/03/11 11:56:38;;;;;;;14.60;11.40;;;16.00;73.80;;;;;;5008288;28;20073;-81
2022/03/11 12:02:26;;;;;;;14.38;10.40;;;16.60;69.40;;;;;;5017388;28;20104;-81
2022/03/11 12:04:52;;;;;;;12.20;9.75;;;16.90;67.00;;;;;;4998673;28;20553;-82
2022/03/11 12:07:41;;;;;;;14.00;10.35;;;16.80;65.40;;;;;;5015584;28;20041;-82
2022/03/11 12:10:27;;;;;;;13.35;9.88;;;17.00;65.10;;;;;;5016683;28;20053;-81
2022/03/11 12:12:53;;;;;;;12.20;10.20;;;17.50;65.00;;;;;;5003086;28;20546;-82
2022/03/11 12:15:18;;;;;;;15.55;10.82;;;17.60;62.80;;;;;;5004382;28;20059;-81
2022/03/11 12:17:51;;;;;;;13.52;10.15;;;18.00;63.00;;;;;;5007267;28;20208;-81
2022/03/11 12:20:32;;;;;;;13.65;10.60;;;18.10;61.60;;;;;;5017034;28;20042;-81
2022/03/11 12:23:20;;;;;;;19.35;11.27;;;18.30;59.30;;;;;;5002761;28;20045;-81
2022/03/11 12:25:58;;;;;;;16.67;10.75;;;18.40;59.30;;;;;;5007982;28;20049;-81
2022/03/11 12:28:33;;;;;;;12.00;9.68;;;18.70;59.90;;;;;;5013782;28;20502;-81
2022/03/11 12:31:11;;;;;;;13.98;9.85;;;18.90;59.00;;;;;;5016171;28;20136;-82
2022/03/11 12:33:45;;;;;;;12.13;9.70;;;18.60;58.20;;;;;;5002118;28;20046;-81
2022/03/11 12:36:17;;;;;;;14.02;10.38;;;18.60;56.70;;;;;;5015970;28;20076;-81
2022/03/11 12:38:44;;;;;;;15.57;10.00;;;18.70;57.80;;;;;;4999199;28;20042;-81
2022/03/11 12:41:13;;;;;;;12.50;10.13;;;18.80;57.90;;;;;;4999636;28;20045;-81
2022/03/11 12:43:40;;;;;;;11.88;9.80;;;18.60;58.20;;;;;;5002471;28;20045;-81
2022/03/11 12:46:08;;;;;;;12.95;10.38;;;18.70;58.60;;;;;;5015678;28;20515;-81
2022/03/11 12:48:37;;;;;;;13.30;10.43;;;18.80;58.30;;;;;;5007528;28;20790;-82